Time;durP1;ratioP1;P1;durP2;ratioP2;P2;SDS_P1;SDS_P2;PMS_P1;PMS_P2;Temp;Humidity;BMP_temperature;BMP_pressure;BME280_temperature;BME280_humidity;BME280_pressure;Samples;Min_cycle;Max_cycle;Signal;HPM_P1;HPM_P2
2023/02/05 00:01:34;;;;;;;16.52;14.63;;;4.50;99.90;;;;;;4959788;28;20040;-81
2023/02/05 00:04:00;;;;;;;17.23;14.88;;;4.50;99.90;;;;;;4959892;28;20044;-82
2023/02/05 00:06:26;;;;;;;17.70;15.77;;;4.50;99.90;;;;;;4954821;28;20126;-82
2023/02/05 00:09:01;;;;;;;17.92;16.02;;;4.50;99.90;;;;;;4974558;28;20693;-80
2023/02/05 00:11:27;;;;;;;16.23;14.52;;;4.60;99.90;;;;;;4960170;28;20804;-82
2023/02/05 00:13:56;;;;;;;17.55;14.93;;;4.60;99.90;;;;;;4943946;28;20056;-81
2023/02/05 00:16:31;;;;;;;19.05;15.80;;;4.50;99.90;;;;;;4942474;28;20056;-82
2023/02/05 00:19:06;;;;;;;20.40;17.88;;;4.60;99.90;;;;;;4972622;28;20055;-82
2023/02/05 00:21:32;;;;;;;18.02;16.05;;;4.50;99.90;;;;;;4978513;28;20045;-82
2023/02/05 00:23:58;;;;;;;18.08;15.68;;;4.60;99.90;;;;;;4962081;28;20048;-74
2023/02/05 00:26:27;;;;;;;19.13;16.95;;;4.60;99.90;;;;;;4955127;28;20053;-74
2023/02/05 00:28:55;;;;;;;18.88;16.02;;;4.60;99.90;;;;;;4954966;28;20907;-74
2023/02/05 00:31:22;;;;;;;20.70;17.75;;;4.60;99.90;;;;;;4953495;28;20061;-74
2023/02/05 00:33:49;;;;;;;21.02;17.23;;;4.60;99.90;;;;;;4971632;28;20091;-74
2023/02/05 00:36:16;;;;;;;21.27;16.48;;;4.60;99.90;;;;;;4970837;28;20916;-81
2023/02/05 00:38:48;;;;;;;20.50;16.48;;;4.60;99.90;;;;;;4970785;28;20045;-82
2023/02/05 00:41:15;;;;;;;24.48;18.70;;;4.70;99.90;;;;;;4977047;28;21225;-81
2023/02/05 00:43:44;;;;;;;19.98;16.83;;;4.60;99.90;;;;;;4960248;28;20080;-81
2023/02/05 00:46:12;;;;;;;22.83;17.45;;;4.60;99.90;;;;;;4960726;28;20060;-81
2023/02/05 00:48:42;;;;;;;21.27;16.88;;;4.70;99.90;;;;;;4972655;28;20055;-81
2023/02/05 00:51:14;;;;;;;;;;;4.70;99.90;;;;;;4957919;28;20049;-81
2023/02/05 00:53:47;;;;;;;19.77;17.55;;;4.70;99.90;;;;;;4957919;28;20425;-74
2023/02/05 00:56:16;;;;;;;19.33;16.42;;;4.70;99.90;;;;;;4951764;28;20060;-74
2023/02/05 00:58:52;;;;;;;23.58;17.25;;;4.70;99.90;;;;;;4969100;28;20048;-75
2023/02/05 01:01:18;;;;;;;24.38;18.00;;;4.70;99.90;;;;;;4952420;28;20060;-74
2023/02/05 01:03:47;;;;;;;22.40;17.42;;;4.80;99.90;;;;;;4967118;28;20080;-74
2023/02/05 01:06:13;;;;;;;22.98;17.15;;;4.80;99.90;;;;;;4951836;28;20134;-75
2023/02/05 01:08:48;;;;;;;23.35;18.52;;;4.70;99.90;;;;;;4924813;28;20049;-74
2023/02/05 01:11:14;;;;;;;23.63;18.38;;;4.80;99.90;;;;;;4983292;28;20056;-74
2023/02/05 01:13:43;;;;;;;22.10;16.85;;;4.80;99.90;;;;;;4989184;28;20596;-81
2023/02/05 01:16:09;;;;;;;24.60;18.33;;;4.80;99.90;;;;;;5004058;28;20060;-81
2023/02/05 01:18:35;;;;;;;22.08;18.20;;;4.80;99.90;;;;;;4987535;28;20080;-81
2023/02/05 01:21:01;;;;;;;21.77;17.65;;;4.80;99.90;;;;;;5003416;28;20292;-81
2023/02/05 01:23:30;;;;;;;23.10;17.73;;;4.80;99.90;;;;;;4985963;28;20759;-81
2023/02/05 01:25:56;;;;;;;23.15;19.67;;;4.80;99.90;;;;;;5003138;28;20139;-82
2023/02/05 01:28:25;;;;;;;26.45;18.48;;;4.90;99.90;;;;;;4984484;28;20356;-81
2023/02/05 01:30:51;;;;;;;25.90;19.00;;;4.90;99.90;;;;;;5007681;28;20159;-81
2023/02/05 01:33:17;;;;;;;24.02;17.33;;;4.90;99.90;;;;;;4984379;28;20049;-81
2023/02/05 01:35:44;;;;;;;23.55;18.17;;;4.90;99.90;;;;;;5004891;28;20044;-81
2023/02/05 01:38:13;;;;;;;24.98;19.10;;;4.90;99.90;;;;;;5023844;28;20044;-81
2023/02/05 01:40:39;;;;;;;24.87;18.83;;;4.90;99.90;;;;;;5023702;28;20068;-83
2023/02/05 01:43:13;;;;;;;23.60;18.95;;;4.90;99.90;;;;;;5022108;28;20048;-82
2023/02/05 01:46:15;;;;;;;25.48;18.38;;;4.90;99.90;;;;;;5025017;28;20041;-82
2023/02/05 01:48:45;;;;;;;27.88;19.90;;;4.90;99.90;;;;;;5016897;28;20102;-82
2023/02/05 01:51:13;;;;;;;26.02;20.27;;;4.90;99.90;;;;;;5025418;28;20096;-82
2023/02/05 01:53:39;;;;;;;33.13;22.48;;;4.90;99.90;;;;;;5032532;28;20044;-82
2023/02/05 01:56:07;;;;;;;28.58;23.40;;;5.00;99.90;;;;;;5020084;28;20036;-83
2023/02/05 01:58:37;;;;;;;31.65;23.55;;;4.90;99.90;;;;;;5038637;28;20036;-84
2023/02/05 02:01:20;;;;;;;35.40;24.60;;;4.90;99.90;;;;;;5021905;28;20044;-83
2023/02/05 02:03:52;;;;;;;33.25;24.88;;;4.90;99.90;;;;;;5017292;28;20067;-83
2023/02/05 02:06:18;;;;;;;32.95;25.52;;;4.90;99.90;;;;;;5022563;28;20045;-83
2023/02/05 02:08:44;;;;;;;34.15;27.25;;;4.90;99.90;;;;;;5023057;28;20068;-84
2023/02/05 02:11:16;;;;;;;28.52;23.42;;;4.90;99.90;;;;;;5006490;28;20055;-83
2023/02/05 02:13:44;;;;;;;35.03;25.92;;;4.90;99.90;;;;;;5020553;28;20044;-83
2023/02/05 02:16:11;;;;;;;34.20;25.55;;;4.90;99.90;;;;;;5023210;28;20495;-83
2023/02/05 02:18:38;;;;;;;46.58;29.83;;;4.90;99.90;;;;;;5008467;28;20561;-83
2023/02/05 02:21:12;;;;;;;43.15;29.67;;;5.00;99.90;;;;;;5023589;28;20037;-83
2023/02/05 02:23:44;;;;;;;41.70;27.77;;;4.90;99.90;;;;;;5025361;28;20083;-83
2023/02/05 02:26:41;;;;;;;40.45;27.10;;;5.00;99.90;;;;;;5023698;28;20044;-83
2023/02/05 02:29:17;;;;;;;39.65;26.45;;;5.10;99.90;;;;;;5018590;28;20084;-83
2023/02/05 02:32:01;;;;;;;43.88;31.15;;;5.10;99.90;;;;;;5024238;28;20114;-83
2023/02/05 02:34:58;;;;;;;44.35;29.42;;;5.10;99.90;;;;;;5018837;28;20831;-83
2023/02/05 02:37:36;;;;;;;45.47;30.17;;;5.10;99.90;;;;;;5017847;28;21507;-83
2023/02/05 02:40:31;;;;;;;38.42;27.42;;;5.10;99.90;;;;;;5005044;28;20048;-83
2023/02/05 02:43:00;;;;;;;57.35;35.33;;;5.10;99.90;;;;;;5013824;28;20064;-83
2023/02/05 02:45:30;;;;;;;49.13;31.05;;;5.10;99.90;;;;;;5013282;28;20351;-83
2023/02/05 02:48:00;;;;;;;42.00;28.00;;;5.20;99.90;;;;;;5001979;28;20045;-83
2023/02/05 02:50:31;;;;;;;35.65;27.17;;;5.20;99.90;;;;;;5004903;28;20080;-83
2023/02/05 02:53:22;;;;;;;47.13;30.75;;;5.20;99.90;;;;;;5015648;28;20056;-83
2023/02/05 02:55:50;;;;;;;37.35;26.13;;;5.20;99.90;;;;;;5016896;28;20052;-83
2023/02/05 02:58:23;;;;;;;40.25;27.88;;;5.20;99.90;;;;;;5002950;28;20033;-83
2023/02/05 03:00:49;;;;;;;41.25;29.20;;;5.30;99.90;;;;;;5015923;28;20103;-83
2023/02/05 03:03:17;;;;;;;43.40;31.38;;;5.30;99.90;;;;;;5014504;28;20163;-83
2023/02/05 03:05:47;;;;;;;42.35;29.95;;;5.30;99.90;;;;;;5006730;28;20049;-83
2023/02/05 03:08:29;;;;;;;45.90;30.40;;;5.30;99.90;;;;;;5004462;28;20130;-83
2023/02/05 03:11:03;;;;;;;37.60;28.60;;;5.30;99.90;;;;;;5019467;28;20132;-83
2023/02/05 03:13:30;;;;;;;40.88;28.45;;;5.30;99.90;;;;;;5003268;28;20049;-84
2023/02/05 03:15:56;;;;;;;40.05;28.77;;;5.40;99.90;;;;;;4988825;28;20048;-83
2023/02/05 03:18:23;;;;;;;39.88;27.67;;;5.30;99.90;;;;;;5001815;28;20038;-83
2023/02/05 03:20:59;;;;;;;44.72;30.85;;;5.40;99.90;;;;;;4998030;28;20089;-83
2023/02/05 03:23:26;;;;;;;68.97;38.28;;;5.40;99.90;;;;;;5024304;28;20041;-83
2023/02/05 03:25:52;;;;;;;44.42;28.55;;;5.40;99.90;;;;;;5007645;28;20042;-83
2023/02/05 03:28:22;;;;;;;55.03;33.17;;;5.40;99.90;;;;;;5014986;28;20052;-83
2023/02/05 03:31:03;;;;;;;110.30;50.50;;;5.40;99.90;;;;;;5004278;28;20053;-82
2023/02/05 03:34:03;;;;;;;86.57;43.53;;;5.50;99.90;;;;;;5016045;28;20083;-82
2023/02/05 03:36:49;;;;;;;;;;;5.50;99.90;;;;;;4980429;28;20089;-82
2023/02/05 03:39:39;;;;;;;111.65;50.28;;;5.60;99.90;;;;;;5004648;28;19952;-82
2023/02/05 03:42:23;;;;;;;98.63;48.92;;;5.60;99.90;;;;;;5028150;28;20446;-82
2023/02/05 03:45:01;;;;;;;125.05;54.45;;;5.70;99.90;;;;;;5013097;28;20072;-82
2023/02/05 03:47:37;;;;;;;138.18;58.88;;;5.70;99.90;;;;;;5026726;28;20041;-82
2023/02/05 03:50:29;;;;;;;137.15;58.22;;;5.70;99.90;;;;;;5025592;28;20091;-82
2023/02/05 03:53:05;;;;;;;140.77;61.30;;;5.80;99.90;;;;;;4989930;28;20464;-78
2023/02/05 03:55:38;;;;;;;79.30;41.72;;;5.80;99.90;;;;;;5011717;28;20041;-78
2023/02/05 03:58:18;;;;;;;157.55;61.03;;;5.90;99.90;;;;;;5011199;28;20057;-78
2023/02/05 04:00:44;;;;;;;154.70;61.75;;;5.90;99.90;;;;;;5004272;28;20224;-79
2023/02/05 04:03:10;;;;;;;158.95;63.78;;;5.90;99.90;;;;;;5007970;28;20040;-78
2023/02/05 04:05:36;;;;;;;159.73;65.07;;;5.90;99.90;;;;;;5000287;28;20044;-79
2023/02/05 04:08:02;;;;;;;89.22;45.97;;;5.90;99.90;;;;;;4993637;28;20461;-83
2023/02/05 04:10:28;;;;;;;159.60;62.85;;;5.90;99.90;;;;;;5005547;28;20048;-83
2023/02/05 04:12:53;;;;;;;97.95;50.47;;;5.90;99.90;;;;;;4992461;28;20407;-83
2023/02/05 04:15:19;;;;;;;82.55;43.35;;;5.90;99.90;;;;;;5011311;28;20547;-82
2023/02/05 04:17:45;;;;;;;151.68;58.17;;;5.90;99.90;;;;;;5016928;28;20056;-82
2023/02/05 04:20:11;;;;;;;150.02;60.00;;;6.00;99.90;;;;;;5019773;28;20446;-82
2023/02/05 04:22:36;;;;;;;107.68;51.38;;;5.90;99.90;;;;;;5002670;28;20708;-83
2023/02/05 04:25:02;;;;;;;149.65;59.72;;;5.90;99.90;;;;;;4993465;28;20056;-82
2023/02/05 04:27:28;;;;;;;184.73;65.07;;;5.90;99.90;;;;;;5017035;28;20123;-82
2023/02/05 04:29:54;;;;;;;151.93;59.90;;;6.00;99.90;;;;;;4998322;28;20049;-83
2023/02/05 04:32:19;;;;;;;145.32;58.92;;;6.00;99.90;;;;;;5018049;28;20044;-82
2023/02/05 04:34:46;;;;;;;165.07;61.00;;;6.00;99.90;;;;;;5004220;28;20041;-82
2023/02/05 04:37:11;;;;;;;93.22;47.90;;;6.00;99.90;;;;;;5010093;28;20417;-83
2023/02/05 04:39:37;;;;;;;172.85;61.33;;;6.00;99.90;;;;;;5028138;28;20045;-82
2023/02/05 04:42:03;;;;;;;180.60;67.07;;;6.00;99.90;;;;;;5024743;28;20048;-82
2023/02/05 04:44:29;;;;;;;102.50;49.08;;;6.00;99.90;;;;;;5011214;28;20128;-82
2023/02/05 04:46:55;;;;;;;187.88;67.10;;;6.00;99.90;;;;;;5030159;28;20045;-82
2023/02/05 04:49:21;;;;;;;142.10;57.30;;;6.10;99.90;;;;;;5046388;28;20414;-82
2023/02/05 04:51:46;;;;;;;142.68;58.25;;;6.10;99.90;;;;;;5020436;28;20776;-82
2023/02/05 04:54:12;;;;;;;95.93;47.95;;;6.10;99.90;;;;;;5010127;28;20044;-82
2023/02/05 04:56:39;;;;;;;133.45;55.97;;;6.10;99.90;;;;;;5028375;28;20039;-82
2023/02/05 04:59:04;;;;;;;174.25;63.60;;;6.10;99.90;;;;;;5014734;28;20049;-83
2023/02/05 05:01:30;;;;;;;137.98;56.53;;;6.10;99.90;;;;;;5023483;28;20033;-82
2023/02/05 05:03:59;;;;;;;141.38;55.88;;;6.10;99.90;;;;;;5021188;28;20052;-82
2023/02/05 05:06:28;;;;;;;117.80;49.53;;;6.20;99.90;;;;;;5041221;28;20036;-81
2023/02/05 05:08:54;;;;;;;117.53;50.13;;;6.20;99.90;;;;;;5021742;28;20162;-81
2023/02/05 05:11:19;;;;;;;99.55;47.45;;;6.20;99.90;;;;;;5027086;28;20502;-81
2023/02/05 05:13:45;;;;;;;110.65;48.08;;;6.20;99.90;;;;;;5012270;28;20079;-81
2023/02/05 05:16:11;;;;;;;112.50;48.10;;;6.30;99.90;;;;;;5036951;28;20043;-81
2023/02/05 05:18:39;;;;;;;90.05;42.25;;;6.30;99.90;;;;;;5006403;28;20037;-81
2023/02/05 05:21:05;;;;;;;95.13;43.40;;;6.30;99.90;;;;;;5033314;28;20040;-81
2023/02/05 05:23:34;;;;;;;87.32;40.35;;;6.30;99.90;;;;;;5038727;28;20524;-81
2023/02/05 05:26:04;;;;;;;70.13;34.65;;;6.40;99.90;;;;;;5042805;28;20499;-81
2023/02/05 05:28:33;;;;;;;95.65;41.28;;;6.40;99.90;;;;;;5027837;28;20044;-81
2023/02/05 05:31:11;;;;;;;98.30;41.70;;;6.40;99.90;;;;;;5043360;28;20060;-82
2023/02/05 05:33:37;;;;;;;74.35;37.28;;;6.50;99.90;;;;;;5036068;28;20509;-81
2023/02/05 05:36:04;;;;;;;75.63;37.35;;;6.40;99.90;;;;;;5045080;28;20052;-81
2023/02/05 05:38:30;;;;;;;68.13;33.75;;;6.50;99.90;;;;;;5005186;28;20087;-81
2023/02/05 05:43:46;;;;;;;68.90;34.38;;;6.60;99.90;;;;;;5033004;28;20044;-81
2023/02/05 05:46:21;;;;;;;60.65;32.35;;;6.60;99.90;;;;;;5014452;28;20040;-81
2023/02/05 05:48:56;;;;;;;46.72;26.48;;;6.60;99.90;;;;;;5032858;28;20075;-78
2023/02/05 05:51:27;;;;;;;29.35;18.83;;;6.60;99.90;;;;;;5024990;28;20518;-77
2023/02/05 05:53:53;;;;;;;17.27;8.85;;;6.70;99.90;;;;;;5035370;28;20041;-77
2023/02/05 05:56:19;;;;;;;11.07;4.75;;;6.70;99.90;;;;;;5038438;28;20049;-75
2023/02/05 05:58:46;;;;;;;12.45;4.88;;;6.80;99.90;;;;;;5058142;28;20064;-81
2023/02/05 06:01:13;;;;;;;10.77;3.63;;;6.70;99.90;;;;;;5031095;28;20044;-77
2023/02/05 06:03:39;;;;;;;11.50;2.83;;;6.60;99.90;;;;;;5017206;28;20460;-77
2023/02/05 06:06:06;;;;;;;11.70;2.42;;;6.60;99.90;;;;;;5027456;28;20052;-81
2023/02/05 06:08:35;;;;;;;10.05;2.40;;;6.60;99.90;;;;;;5028099;28;20044;-77
2023/02/05 06:11:01;;;;;;;12.93;2.60;;;6.50;99.90;;;;;;5042533;28;20045;-80
2023/02/05 06:13:27;;;;;;;10.90;2.08;;;6.60;99.90;;;;;;5020396;28;20055;-79
2023/02/05 06:15:53;;;;;;;14.77;2.53;;;6.50;99.90;;;;;;5000042;28;20055;-79
2023/02/05 06:18:19;;;;;;;12.02;1.83;;;6.40;99.90;;;;;;5011345;28;20041;-76
2023/02/05 06:20:45;;;;;;;13.70;2.47;;;6.40;99.90;;;;;;5033055;28;20178;-80
2023/02/05 06:23:11;;;;;;;12.65;2.42;;;6.40;99.90;;;;;;5018210;28;20127;-77
2023/02/05 06:25:37;;;;;;;13.35;3.05;;;6.30;99.90;;;;;;5035318;28;20852;-80
2023/02/05 06:28:03;;;;;;;13.45;2.38;;;6.30;99.90;;;;;;5010451;28;20529;-81
2023/02/05 06:30:29;;;;;;;13.80;3.10;;;6.30;99.90;;;;;;5023224;28;20072;-80
2023/02/05 06:32:55;;;;;;;11.15;1.92;;;6.30;99.90;;;;;;5025947;28;20037;-81
2023/02/05 06:35:21;;;;;;;14.05;2.38;;;6.20;99.90;;;;;;5049333;28;20045;-80
2023/02/05 06:37:50;;;;;;;12.00;2.17;;;6.30;99.90;;;;;;5045974;28;20414;-79
2023/02/05 06:40:21;;;;;;;11.43;2.03;;;6.20;99.90;;;;;;5006826;28;20241;-80
2023/02/05 06:42:48;;;;;;;13.10;1.50;;;6.20;99.90;;;;;;5022914;28;20130;-80
2023/02/05 06:45:13;;;;;;;17.13;2.42;;;6.20;99.90;;;;;;5019588;28;20048;-80
2023/02/05 06:47:39;;;;;;;11.65;2.30;;;6.20;99.90;;;;;;5025934;28;20044;-80
2023/02/05 06:50:05;;;;;;;13.65;2.00;;;6.10;99.90;;;;;;5039172;28;20491;-80
2023/02/05 06:52:34;;;;;;;16.95;3.15;;;6.10;99.90;;;;;;5042699;28;20402;-80
2023/02/05 06:55:00;;;;;;;13.88;2.63;;;6.10;99.90;;;;;;5000499;28;20060;-80
2023/02/05 06:57:26;;;;;;;14.95;2.13;;;6.10;99.90;;;;;;5011646;28;20523;-81
2023/02/05 06:59:54;;;;;;;20.02;3.10;;;6.10;99.90;;;;;;5022833;28;20045;-80
2023/02/05 07:02:20;;;;;;;19.65;3.10;;;6.10;99.90;;;;;;5025570;28;20079;-80
2023/02/05 07:04:46;;;;;;;16.13;2.92;;;6.00;99.90;;;;;;5010624;28;20045;-81
2023/02/05 07:07:12;;;;;;;20.65;2.72;;;6.00;99.90;;;;;;5005786;28;20048;-80
2023/02/05 07:09:38;;;;;;;14.63;2.40;;;6.00;99.90;;;;;;5023947;28;20036;-81
2023/02/05 07:12:04;;;;;;;15.20;2.85;;;6.00;99.90;;;;;;5022568;28;20072;-80
2023/02/05 07:14:30;;;;;;;15.55;2.28;;;6.10;99.90;;;;;;5021960;28;20052;-80
2023/02/05 07:16:56;;;;;;;14.45;2.83;;;6.10;99.90;;;;;;5026511;28;20056;-78
2023/02/05 07:19:22;;;;;;;15.85;2.50;;;6.10;99.90;;;;;;5009291;28;20074;-78
2023/02/05 07:21:48;;;;;;;13.30;2.50;;;6.10;99.90;;;;;;5028017;28;20041;-80
2023/02/05 07:24:13;;;;;;;20.92;3.47;;;6.20;99.90;;;;;;5011574;28;20048;-79
2023/02/05 07:26:41;;;;;;;14.00;2.92;;;6.20;99.90;;;;;;5026698;28;20048;-78
2023/02/05 07:29:07;;;;;;;17.08;3.00;;;6.20;99.90;;;;;;5009841;28;20111;-77
2023/02/05 07:31:33;;;;;;;15.93;2.80;;;6.10;99.90;;;;;;5018649;28;20054;-81
2023/02/05 07:33:59;;;;;;;15.07;3.28;;;6.10;99.90;;;;;;5007045;28;20795;-78
2023/02/05 07:36:24;;;;;;;13.23;2.47;;;6.10;99.90;;;;;;4991755;28;20435;-78
2023/02/05 07:38:50;;;;;;;11.00;2.55;;;6.10;99.90;;;;;;5001685;28;20045;-79
2023/02/05 07:41:16;;;;;;;13.40;2.72;;;6.10;99.90;;;;;;5011097;28;20389;-80
2023/02/05 07:43:42;;;;;;;14.05;2.70;;;6.10;99.90;;;;;;5004617;28;20095;-82
2023/02/05 07:46:11;;;;;;;14.63;2.40;;;6.20;99.90;;;;;;5000909;28;20081;-82
2023/02/05 07:48:37;;;;;;;12.57;2.85;;;6.20;99.90;;;;;;5007546;28;20515;-80
2023/02/05 07:51:03;;;;;;;16.63;2.67;;;6.20;99.90;;;;;;5006445;28;20209;-82
2023/02/05 07:53:29;;;;;;;15.23;2.58;;;6.30;99.90;;;;;;4992978;28;20503;-79
2023/02/05 07:55:55;;;;;;;15.88;2.42;;;6.30;99.90;;;;;;4999540;28;20052;-80
2023/02/05 07:58:21;;;;;;;15.50;2.72;;;6.20;99.90;;;;;;4998238;28;20044;-81
2023/02/05 08:00:46;;;;;;;15.45;3.22;;;6.30;99.90;;;;;;5018532;28;20339;-80
2023/02/05 08:03:12;;;;;;;18.10;2.97;;;6.40;99.90;;;;;;5011895;28;20064;-81
2023/02/05 08:05:38;;;;;;;16.27;3.65;;;6.40;99.90;;;;;;5021531;28;20041;-84
2023/02/05 08:08:05;;;;;;;18.27;2.80;;;6.40;99.90;;;;;;5016888;28;20049;-82
2023/02/05 08:10:31;;;;;;;23.98;4.00;;;6.30;99.90;;;;;;5007500;28;20045;-81
2023/02/05 08:12:57;;;;;;;18.92;3.70;;;6.30;99.90;;;;;;5015022;28;20041;-80
2023/02/05 08:15:23;;;;;;;20.95;3.42;;;6.30;99.90;;;;;;5009574;28;20116;-82
2023/02/05 08:17:49;;;;;;;16.05;3.47;;;6.40;99.90;;;;;;4991039;28;20468;-79
2023/02/05 08:20:15;;;;;;;19.63;3.05;;;6.30;99.90;;;;;;5019217;28;20046;-78
2023/02/05 08:22:42;;;;;;;15.18;2.65;;;6.30;99.90;;;;;;5019494;28;20069;-83
2023/02/05 08:25:13;;;;;;;15.50;3.05;;;6.40;99.90;;;;;;4995935;28;20057;-84
2023/02/05 08:27:41;;;;;;;15.77;3.28;;;6.40;99.90;;;;;;5014877;28;20045;-79
2023/02/05 08:30:10;;;;;;;18.20;3.08;;;6.40;99.90;;;;;;5018453;28;20099;-79
2023/02/05 08:32:37;;;;;;;14.50;3.03;;;6.40;99.90;;;;;;5028736;28;20049;-82
2023/02/05 08:35:03;;;;;;;18.58;3.20;;;6.40;99.90;;;;;;5035873;28;20675;-81
2023/02/05 08:37:29;;;;;;;15.13;2.95;;;6.40;99.90;;;;;;5031900;28;20044;-76
2023/02/05 08:40:01;;;;;;;15.75;2.60;;;6.40;99.90;;;;;;5034176;28;20052;-80
2023/02/05 08:42:27;;;;;;;15.50;3.38;;;6.40;99.90;;;;;;5019398;28;20044;-76
2023/02/05 08:44:54;;;;;;;16.10;3.17;;;6.50;99.90;;;;;;5034934;28;20552;-83
2023/02/05 08:47:21;;;;;;;13.77;3.45;;;6.50;99.90;;;;;;5023090;28;20041;-79
2023/02/05 08:49:47;;;;;;;22.80;4.20;;;6.60;99.90;;;;;;5006170;28;20052;-82
2023/02/05 08:52:13;;;;;;;19.75;3.00;;;6.60;99.90;;;;;;5034576;28;20045;-84
2023/02/05 08:54:41;;;;;;;19.60;4.20;;;6.50;99.90;;;;;;5025916;28;20688;-78
2023/02/05 08:57:08;;;;;;;15.23;2.90;;;6.50;99.90;;;;;;5021663;28;20045;-78
2023/02/05 08:59:34;;;;;;;20.02;3.63;;;6.60;99.90;;;;;;5023924;28;20120;-79
2023/02/05 09:02:01;;;;;;;24.98;4.63;;;6.60;99.90;;;;;;5030341;28;20147;-82
2023/02/05 09:04:27;;;;;;;18.33;3.90;;;6.60;99.90;;;;;;5022836;28;20567;-82
2023/02/05 09:06:52;;;;;;;18.50;4.30;;;6.60;99.90;;;;;;5027762;28;20243;-81
2023/02/05 09:09:19;;;;;;;24.45;4.63;;;6.60;99.90;;;;;;5020155;28;20044;-82
2023/02/05 09:11:45;;;;;;;26.17;5.40;;;6.70;99.90;;;;;;5037093;28;20098;-81
2023/02/05 09:14:12;;;;;;;21.92;5.13;;;6.60;99.90;;;;;;5025821;28;20072;-80
2023/02/05 09:16:41;;;;;;;20.33;4.57;;;6.70;99.90;;;;;;5029852;28;20119;-82
2023/02/05 09:19:07;;;;;;;23.02;3.97;;;6.70;99.90;;;;;;5046862;28;20037;-77
2023/02/05 09:21:33;;;;;;;18.05;4.13;;;6.70;99.90;;;;;;5022008;28;20067;-82
2023/02/05 09:23:59;;;;;;;20.20;4.55;;;6.70;99.90;;;;;;5019711;28;20515;-76
2023/02/05 09:26:25;;;;;;;22.38;4.07;;;6.70;99.90;;;;;;5027542;28;20049;-79
2023/02/05 09:28:51;;;;;;;25.20;4.68;;;6.70;99.90;;;;;;5038178;28;20051;-80
2023/02/05 09:31:18;;;;;;;22.35;4.40;;;6.70;99.90;;;;;;5011850;28;20070;-78
2023/02/05 09:33:44;;;;;;;23.10;4.45;;;6.70;99.90;;;;;;5034127;28;20040;-79
2023/02/05 09:36:15;;;;;;;27.42;5.32;;;6.80;99.90;;;;;;5035475;28;20130;-78
2023/02/05 09:38:41;;;;;;;27.85;5.20;;;6.70;99.90;;;;;;5023804;28;20609;-77
2023/02/05 09:41:15;;;;;;;23.88;4.07;;;6.70;99.90;;;;;;5040907;28;20490;-74
2023/02/05 09:43:51;;;;;;;21.10;3.92;;;6.70;99.90;;;;;;5037706;28;20530;-78
2023/02/05 09:46:39;;;;;;;25.35;5.35;;;6.70;99.90;;;;;;5034255;28;20075;-79
2023/02/05 09:49:26;;;;;;;20.58;4.18;;;6.70;99.90;;;;;;5035719;28;20041;-80
2023/02/05 09:52:01;;;;;;;25.73;4.43;;;6.60;99.90;;;;;;5031610;28;21349;-77
2023/02/05 09:54:32;;;;;;;23.17;4.28;;;6.60;99.90;;;;;;5036216;28;20151;-80
2023/02/05 09:57:03;;;;;;;15.82;3.25;;;6.70;99.90;;;;;;5032415;28;20102;-78
2023/02/05 09:59:30;;;;;;;16.50;3.10;;;6.70;99.90;;;;;;5024406;28;20430;-78
2023/02/05 10:02:02;;;;;;;17.23;3.15;;;6.90;99.90;;;;;;5029103;28;20033;-81
2023/02/05 10:04:28;;;;;;;18.65;3.13;;;7.00;99.90;;;;;;5030898;28;20452;-75
2023/02/05 10:07:06;;;;;;;17.90;3.20;;;7.10;99.90;;;;;;5029912;28;20302;-75
2023/02/05 10:09:42;;;;;;;18.98;3.80;;;7.10;99.90;;;;;;5036664;28;20040;-73
2023/02/05 10:12:25;;;;;;;17.02;4.03;;;7.10;99.90;;;;;;5034512;28;20045;-77
2023/02/05 10:15:28;;;;;;;19.55;4.22;;;7.20;99.90;;;;;;5043042;28;20051;-79
2023/02/05 10:18:10;;;;;;;16.35;3.40;;;7.20;99.90;;;;;;5023423;28;20155;-81
2023/02/05 10:20:48;;;;;;;17.13;4.20;;;7.10;99.90;;;;;;5032363;28;20396;-78
2023/02/05 10:23:29;;;;;;;20.75;4.00;;;7.20;99.90;;;;;;5041866;28;20094;-79
2023/02/05 10:26:11;;;;;;;22.33;4.72;;;7.10;99.90;;;;;;5025676;28;20052;-79
2023/02/05 10:28:52;;;;;;;24.15;5.40;;;7.20;99.90;;;;;;5016970;28;20068;-74
2023/02/05 10:31:42;;;;;;;21.85;4.60;;;7.20;99.90;;;;;;5029078;28;20060;-74
2023/02/05 10:34:32;;;;;;;22.92;5.03;;;7.30;99.90;;;;;;5016611;28;20060;-74
2023/02/05 10:37:01;;;;;;;24.30;4.80;;;7.40;99.90;;;;;;5022802;28;20036;-75
2023/02/05 10:39:29;;;;;;;20.60;4.78;;;7.50;99.90;;;;;;5029126;28;20530;-79
2023/02/05 10:42:05;;;;;;;27.13;5.13;;;7.60;99.90;;;;;;5025097;28;20063;-81
2023/02/05 10:44:37;;;;;;;30.70;6.05;;;7.60;99.90;;;;;;5030091;28;20084;-74
2023/02/05 10:47:11;;;;;;;30.70;5.90;;;7.70;99.90;;;;;;5011246;28;20037;-82
2023/02/05 10:49:56;;;;;;;27.98;5.68;;;7.60;99.90;;;;;;5019543;28;20419;-81
2023/02/05 10:52:22;;;;;;;21.73;4.45;;;7.60;99.90;;;;;;5036162;28;20040;-76
2023/02/05 10:54:49;;;;;;;15.38;4.45;;;7.50;99.90;;;;;;5010887;28;20037;-81
2023/02/05 10:57:20;;;;;;;19.83;3.67;;;7.50;99.90;;;;;;5028178;28;20037;-80
2023/02/05 11:00:17;;;;;;;18.55;4.13;;;7.50;99.90;;;;;;5039027;28;20037;-77
2023/02/05 11:02:49;;;;;;;18.13;3.33;;;7.50;99.90;;;;;;5029287;28;20341;-82
2023/02/05 11:05:42;;;;;;;17.48;3.72;;;7.50;99.90;;;;;;5039126;28;20124;-80
2023/02/05 11:08:30;;;;;;;16.27;4.25;;;7.50;99.90;;;;;;5035691;28;20063;-78
2023/02/05 11:10:56;;;;;;;17.63;3.97;;;7.60;99.90;;;;;;5013157;28;20048;-80
2023/02/05 11:13:23;;;;;;;19.27;4.07;;;7.60;99.90;;;;;;5012137;28;20258;-79
2023/02/05 11:16:07;;;;;;;20.40;5.28;;;7.60;99.90;;;;;;5029195;28;20037;-78
2023/02/05 11:18:39;;;;;;;21.33;4.18;;;7.60;99.90;;;;;;5019663;28;20120;-79
2023/02/05 11:21:08;;;;;;;22.33;4.97;;;7.60;99.90;;;;;;5028626;28;20378;-79
2023/02/05 11:23:39;;;;;;;23.98;5.10;;;7.70;99.90;;;;;;5012208;28;20372;-80
2023/02/05 11:26:19;;;;;;;25.17;5.85;;;7.80;99.90;;;;;;5011724;28;20052;-79
2023/02/05 11:28:45;;;;;;;21.20;4.28;;;7.80;99.90;;;;;;5032910;28;20049;-80
2023/02/05 11:31:46;;;;;;;24.35;5.72;;;7.90;99.90;;;;;;5029132;28;20049;-80
2023/02/05 11:34:15;;;;;;;23.65;5.43;;;7.90;99.90;;;;;;4923349;29;20069;-80
2023/02/05 11:36:53;;;;;;;23.00;5.57;;;7.90;99.90;;;;;;5001335;28;20067;-82
2023/02/05 11:39:38;;;;;;;26.00;5.50;;;7.90;99.90;;;;;;5013039;28;20053;-80
2023/02/05 11:42:16;;;;;;;28.60;6.93;;;8.00;99.90;;;;;;4985089;28;20516;-81
2023/02/05 11:44:52;;;;;;;26.50;5.68;;;8.00;99.90;;;;;;5004502;28;20470;-82
2023/02/05 11:47:44;;;;;;;24.63;6.40;;;8.00;99.90;;;;;;5006675;28;20044;-78
2023/02/05 11:50:28;;;;;;;24.35;5.38;;;8.10;99.90;;;;;;5018553;28;20117;-75
2023/02/05 11:53:15;;;;;;;32.08;6.97;;;8.10;99.90;;;;;;5023293;28;20041;-80
2023/02/05 11:55:42;;;;;;;23.83;5.78;;;8.10;99.90;;;;;;5001044;28;20064;-80
2023/02/05 11:58:41;;;;;;;25.80;6.07;;;8.10;99.90;;;;;;5013344;28;20049;-80
2023/02/05 12:01:23;;;;;;;26.95;5.55;;;8.20;99.90;;;;;;4967754;28;20115;-80
2023/02/05 12:04:10;;;;;;;28.60;6.35;;;8.20;99.90;;;;;;5000152;28;20057;-78
2023/02/05 12:06:56;;;;;;;28.77;6.70;;;8.20;99.90;;;;;;5002227;28;20380;-81
2023/02/05 12:09:24;;;;;;;29.92;6.82;;;8.30;99.90;;;;;;5014962;28;20120;-77
2023/02/05 12:12:10;;;;;;;26.50;5.68;;;8.30;99.90;;;;;;4986475;28;20191;-80
2023/02/05 12:15:12;;;;;;;23.48;6.13;;;8.30;99.90;;;;;;5015300;28;20132;-78
2023/02/05 12:17:56;;;;;;;27.13;5.85;;;8.30;99.90;;;;;;4997498;28;20041;-76
2023/02/05 12:20:29;;;;;;;24.95;5.50;;;8.30;99.90;;;;;;5018102;28;20494;-80
2023/02/05 12:23:20;;;;;;;25.63;5.70;;;8.30;99.90;;;;;;5015094;28;20120;-80
2023/02/05 12:26:06;;;;;;;34.60;6.85;;;8.40;99.90;;;;;;5021389;28;20079;-79
2023/02/05 12:28:53;;;;;;;27.27;6.18;;;8.50;99.90;;;;;;5015732;28;20115;-79
2023/02/05 12:31:44;;;;;;;28.30;5.63;;;8.50;99.90;;;;;;4999337;28;20056;-80
2023/02/05 12:34:15;;;;;;;;;;;8.50;99.90;;;;;;5000697;28;20077;-82
2023/02/05 12:37:07;;;;;;;23.90;5.38;;;8.50;99.90;;;;;;5002810;28;19939;-78
2023/02/05 12:39:44;;;;;;;30.52;5.78;;;8.60;99.90;;;;;;5004440;28;20044;-81
2023/02/05 12:42:29;;;;;;;24.17;6.25;;;8.60;99.90;;;;;;5004161;28;20037;-75
2023/02/05 12:45:31;;;;;;;27.00;6.22;;;8.60;99.90;;;;;;5004706;28;20045;-81
2023/02/05 12:48:38;;;;;;;27.52;6.30;;;8.60;99.90;;;;;;5003453;28;20171;-80
2023/02/05 12:51:39;;;;;;;30.42;6.70;;;8.60;99.90;;;;;;5020516;28;20048;-75
2023/02/05 12:54:18;;;;;;;23.38;5.90;;;8.80;99.90;;;;;;4974464;28;20049;-77
2023/02/05 12:57:04;;;;;;;22.60;4.95;;;8.80;99.90;;;;;;5017745;28;20056;-77
2023/02/05 12:59:39;;;;;;;23.02;4.93;;;8.70;99.90;;;;;;5002622;28;20641;-80
2023/02/05 13:02:16;;;;;;;26.55;5.25;;;8.70;99.90;;;;;;5015091;28;20340;-82
2023/02/05 13:04:59;;;;;;;27.38;5.43;;;8.70;99.90;;;;;;5015924;28;20279;-78
2023/02/05 13:07:35;;;;;;;29.50;6.75;;;8.70;99.90;;;;;;5015637;28;20037;-81
2023/02/05 13:10:05;;;;;;;26.52;6.28;;;8.70;99.90;;;;;;4995494;28;20091;-80